ADDS METAR Data INFO
IDs: Format: Raw Decoded Include TAF

Data at: 0154 UTC 17 Oct 2017

KDTS 170053Z AUTO 01013G22KT 10SM CLR 21/14 A3007 RMK AO2 SLP183 T02060139
KDTS 162353Z AUTO 01011G20KT 10SM CLR 21/14 A3006 RMK AO2 SLP178 T02060144 10272 20206 53019
KDTS 162253Z AUTO 36014KT 10SM SCT015 21/14 A3003 RMK AO2 SLP169 T02110144
KDTS 162244Z AUTO 36012G21KT 10SM BKN015 21/16 A3003 RMK AO2 T02110156
KDTS 162233Z AUTO 36014G20KT 10SM BKN014 21/16 A3003 RMK AO2 T02110156
KDTS 162204Z AUTO 36015G21KT 10SM BKN015 22/16 A3002 RMK AO2 T02220161
KDTS 162153Z AUTO 36015KT 10SM SCT015 23/17 A3002 RMK AO2 SLP165 T02280167
KDTS 162053Z AUTO 36013KT 10SM CLR 26/18 A3000 RMK AO2 SLP159 T02560178 58003
KDTS 162005Z AUTO 02010KT 10SM SCT021 26/18 A3001 RMK AO2 T02560183
KDTS 161953Z AUTO 35013G19KT 10SM BKN021 26/18 A3001 RMK AO2 SLP163 T02610183
KDTS 161943Z AUTO 35013KT BKN021 26/18 A3001 RMK AO2 T02610183
KDTS 161921Z AUTO SCT014 26/19 A3001 RMK AO2 T02560189 PWINO $
KDTS 161853Z AUTO 35012G21KT 10SM OVC014 25/19 A3001 RMK AO2 SLP162 T02500189
KDTS 161850Z AUTO 35014G21KT 10SM BKN014 OVC026 25/19 A3001 RMK AO2
KDTS 161753Z AUTO 36011KT 10SM OVC020 26/20 A3003 RMK AO2 SLP168 T02610200 10294 20250 58017
KDTS 161706Z AUTO 34009KT 10SM BKN020 28/21 A3004 RMK AO2 T02830211
KDTS 161653Z AUTO 36008KT 10SM FEW018 28/21 A3005 RMK AO2 SLP175 T02830211
KDTS 161553Z AUTO 36008KT 10SM FEW011 28/22 A3006 RMK AO2 SLP180 T02780217
KDTS 161543Z AUTO 02008KT 10SM SCT011 27/21 A3007 RMK AO2 T02720211
KDTS 161453Z AUTO 35009KT 10SM OVC010 26/21 A3008 RMK AO2 SLP185 T02560211 51018
KDTS 161431Z AUTO 35011KT 10SM OVC012 25/21 A3008 RMK AO2 T02500211
KDTS 161353Z AUTO 36011KT 10SM OVC009 25/21 A3007 RMK AO2 SLP181 T02500211
KDTS 161253Z AUTO 36008KT 10SM BKN008 OVC055 25/22 A3004 RMK AO2 SLP173 T02500217
KDTS 161245Z AUTO 34008KT 10SM SCT008 OVC055 25/22 A3005 RMK AO2 T02500217
KDTS 161153Z AUTO 35007KT 10SM FEW060 25/22 A3002 RMK AO2 SLP166 T02500217 10267 20250 51007
KDTS 161053Z AUTO 01005KT 10SM BKN060 26/22 A3002 RMK AO2 SLP166 T02560222
KDTS 160953Z AUTO 02004KT 10SM BKN060 OVC095 26/23 A3001 RMK AO2 SLP162 T02560228
KDTS 160853Z AUTO 36005KT 10SM OVC095 26/22 A3001 RMK AO2 SLP160 T02560222 58008
KDTS 160753Z AUTO 33005KT 10SM SCT100 26/22 A3001 RMK AO2 SLP162 T02560222
KDTS 160653Z AUTO 00000KT 10SM CLR 26/22 A3002 RMK AO2 SLP166 T02560222
KDTS 160553Z AUTO 00000KT 10SM BKN110 26/22 A3003 RMK AO2 SLP167 T02610222 10283 20261 403060250 58005
KDTS 160453Z AUTO 00000KT 10SM FEW021 SCT030 26/22 A3005 RMK AO2 SLP174 T02610222
KDTS 160445Z AUTO 35003KT 10SM FEW021 BKN030 27/22 A3005 RMK AO2 T02670222
KDTS 160436Z AUTO 34003KT 10SM BKN020 BKN028 27/22 A3005 RMK AO2 T02670222
KDTS 160423Z AUTO 33004KT 10SM FEW020 26/22 A3005 RMK AO2 T02610222
KDTS 160415Z AUTO 33003KT 10SM BKN020 26/22 A3005 RMK AO2 T02610222
KDTS 160402Z AUTO 00000KT 10SM SCT021 28/22 A3005 RMK AO2 T02780222
KDTS 160353Z AUTO 00000KT 10SM BKN021 28/22 A3004 RMK AO2 SLP173 T02780222
KDTS 160350Z AUTO 00000KT 10SM BKN019 28/22 A3004 RMK AO2
KDTS 160253Z AUTO 00000KT 10SM CLR 28/22 A3003 RMK AO2 SLP169 T02780222 58002
KDTS 160153Z AUTO 18003KT 10SM CLR 27/22 A3004 RMK AO2 SLP171 T02720217
KDTS 160053Z AUTO 00000KT 10SM CLR 28/21 A3005 RMK AO2 SLP176 T02830211
KDTS 152353Z AUTO 23003KT 10SM CLR 28/22 A3004 RMK AO2 SLP172 T02830217 10306 20283 53005
KDTS 152253Z AUTO 19004KT 10SM CLR 28/22 A3002 RMK AO2 SLP163 T02830217
KDTS 152153Z AUTO 16006KT 10SM CLR 29/21 A3002 RMK AO2 SLP165 T02890211
KDTS 152053Z AUTO 15007KT 10SM CLR 29/22 A3002 RMK AO2 SLP166 T02940217 56025
KDTS 151953Z AUTO 15008KT 10SM CLR 30/22 A3004 RMK AO2 SLP170 T03000217
KDTS 151853Z AUTO 15009KT 10SM CLR 29/22 A3005 RMK AO2 SLP176 T02940222
KDTS 151753Z AUTO 15008KT 10SM OVC070 30/23 A3010 RMK AO2 SLP192 T03000228 10306 20250 58008
KDTS 151653Z AUTO 12008KT 10SM BKN065 29/22 A3012 RMK AO2 SLP200 T02940222
KDTS 151553Z AUTO 12009KT 10SM CLR 29/22 A3013 RMK AO2 SLP201 T02940222
KDTS 151453Z AUTO 05007KT 10SM CLR 28/23 A3012 RMK AO2 SLP199 T02780228 51014